Edgemoor, Delaware
Current Conditions -  °F | °C
As of 2:51 AM on Wednesday 22 Oct 2014 (Local Time) from KILG Reporting Station
Light Rain Light Rain  
Wind Chill: 55°   Ceiling: 8500
Heat Index: 55°   Visibility: 10mi
Dew Point: 52°   Wind: 10mph
Humidity: 89%   Direction: 360°N
Pressure: 29.84"   Gusts: NA
Location:  39.748°N, 75.5244°W
Report Text: KILG 220651Z 36009KT 10SM -RA FEW065 OVC085 13/11 A2984 RMK AO2 RAB0552 SLP105 P0000 T01280111
Loading
Personal Weather Stations






























Interactive Weather Map
Tropical Storm Tracking
New forecast layout! Learn more

10-Day Weather Forecast

Advertisements
Track Severe Weather on mobile